sensor_id;sensor_type;location;lat;lon;timestamp;P1;durP1;ratioP1;P2;durP2;ratioP2
27201;SDS011;14717;46.924;15.474;2022-12-08T00:01:15;36.13;;;12.27;;
27201;SDS011;14717;46.924;15.474;2022-12-08T00:03:42;37.58;;;12.93;;
27201;SDS011;14717;46.924;15.474;2022-12-08T00:06:18;39.45;;;11.55;;
27201;SDS011;14717;46.924;15.474;2022-12-08T00:11:53;30.13;;;12.10;;
27201;SDS011;14717;46.924;15.474;2022-12-08T00:14:23;34.38;;;12.52;;
27201;SDS011;14717;46.924;15.474;2022-12-08T00:16:51;30.45;;;10.68;;
27201;SDS011;14717;46.924;15.474;2022-12-08T00:21:43;36.00;;;11.13;;
27201;SDS011;14717;46.924;15.474;2022-12-08T00:24:08;33.65;;;11.38;;
27201;SDS011;14717;46.924;15.474;2022-12-08T00:26:33;45.05;;;13.05;;
27201;SDS011;14717;46.924;15.474;2022-12-08T00:29:00;32.25;;;11.10;;
27201;SDS011;14717;46.924;15.474;2022-12-08T00:31:26;36.17;;;11.63;;
27201;SDS011;14717;46.924;15.474;2022-12-08T00:33:51;29.95;;;10.95;;
27201;SDS011;14717;46.924;15.474;2022-12-08T00:36:16;42.17;;;11.43;;
27201;SDS011;14717;46.924;15.474;2022-12-08T00:38:42;39.72;;;12.02;;
27201;SDS011;14717;46.924;15.474;2022-12-08T00:43:39;34.47;;;11.10;;
27201;SDS011;14717;46.924;15.474;2022-12-08T00:46:04;35.97;;;11.02;;
27201;SDS011;14717;46.924;15.474;2022-12-08T00:48:30;36.55;;;12.50;;
27201;SDS011;14717;46.924;15.474;2022-12-08T00:50:55;44.70;;;12.10;;
27201;SDS011;14717;46.924;15.474;2022-12-08T00:53:20;41.35;;;12.02;;
27201;SDS011;14717;46.924;15.474;2022-12-08T00:55:46;35.17;;;11.57;;
27201;SDS011;14717;46.924;15.474;2022-12-08T00:58:11;34.08;;;11.65;;
27201;SDS011;14717;46.924;15.474;2022-12-08T01:00:38;35.80;;;12.48;;
27201;SDS011;14717;46.924;15.474;2022-12-08T01:03:04;34.65;;;11.77;;
27201;SDS011;14717;46.924;15.474;2022-12-08T01:05:30;40.55;;;12.95;;
27201;SDS011;14717;46.924;15.474;2022-12-08T01:07:55;34.45;;;11.25;;
27201;SDS011;14717;46.924;15.474;2022-12-08T01:10:20;52.65;;;11.93;;
27201;SDS011;14717;46.924;15.474;2022-12-08T01:12:46;32.53;;;11.30;;
27201;SDS011;14717;46.924;15.474;2022-12-08T01:15:11;33.75;;;10.45;;
27201;SDS011;14717;46.924;15.474;2022-12-08T01:17:36;34.90;;;12.82;;
27201;SDS011;14717;46.924;15.474;2022-12-08T01:20:02;33.72;;;11.63;;
27201;SDS011;14717;46.924;15.474;2022-12-08T01:22:28;34.28;;;11.48;;
27201;SDS011;14717;46.924;15.474;2022-12-08T01:24:54;34.17;;;11.38;;
27201;SDS011;14717;46.924;15.474;2022-12-08T01:27:19;33.33;;;11.32;;
27201;SDS011;14717;46.924;15.474;2022-12-08T01:29:44;39.33;;;11.93;;
27201;SDS011;14717;46.924;15.474;2022-12-08T01:32:10;33.78;;;12.05;;
27201;SDS011;14717;46.924;15.474;2022-12-08T01:34:35;30.67;;;12.02;;
27201;SDS011;14717;46.924;15.474;2022-12-08T01:37:00;34.22;;;11.32;;
27201;SDS011;14717;46.924;15.474;2022-12-08T01:39:26;39.85;;;11.57;;
27201;SDS011;14717;46.924;15.474;2022-12-08T01:41:51;41.22;;;12.68;;
27201;SDS011;14717;46.924;15.474;2022-12-08T01:46:43;34.60;;;11.80;;
27201;SDS011;14717;46.924;15.474;2022-12-08T01:49:12;32.83;;;10.48;;
27201;SDS011;14717;46.924;15.474;2022-12-08T01:54:38;38.03;;;12.13;;
27201;SDS011;14717;46.924;15.474;2022-12-08T01:57:16;32.63;;;11.23;;
27201;SDS011;14717;46.924;15.474;2022-12-08T01:59:46;35.30;;;11.90;;
27201;SDS011;14717;46.924;15.474;2022-12-08T02:02:16;36.22;;;11.82;;
27201;SDS011;14717;46.924;15.474;2022-12-08T02:04:42;34.50;;;11.23;;
27201;SDS011;14717;46.924;15.474;2022-12-08T02:07:07;35.58;;;11.98;;
27201;SDS011;14717;46.924;15.474;2022-12-08T02:09:36;37.78;;;12.10;;
27201;SDS011;14717;46.924;15.474;2022-12-08T02:12:03;37.85;;;13.02;;
27201;SDS011;14717;46.924;15.474;2022-12-08T02:14:29;36.53;;;12.18;;
27201;SDS011;14717;46.924;15.474;2022-12-08T02:17:16;42.03;;;11.43;;
27201;SDS011;14717;46.924;15.474;2022-12-08T02:25:14;32.83;;;11.07;;
27201;SDS011;14717;46.924;15.474;2022-12-08T02:33:00;36.22;;;12.35;;
27201;SDS011;14717;46.924;15.474;2022-12-08T02:35:58;35.85;;;12.32;;
27201;SDS011;14717;46.924;15.474;2022-12-08T02:38:47;41.08;;;13.23;;
27201;SDS011;14717;46.924;15.474;2022-12-08T02:44:01;38.87;;;11.57;;
27201;SDS011;14717;46.924;15.474;2022-12-08T02:46:42;31.45;;;10.68;;
27201;SDS011;14717;46.924;15.474;2022-12-08T02:49:12;40.55;;;12.18;;
27201;SDS011;14717;46.924;15.474;2022-12-08T02:54:04;46.92;;;11.07;;
27201;SDS011;14717;46.924;15.474;2022-12-08T02:59:24;54.22;;;13.73;;
27201;SDS011;14717;46.924;15.474;2022-12-08T03:05:17;65.25;;;12.32;;
27201;SDS011;14717;46.924;15.474;2022-12-08T03:07:49;39.17;;;12.82;;
27201;SDS011;14717;46.924;15.474;2022-12-08T03:10:30;83.57;;;15.85;;
27201;SDS011;14717;46.924;15.474;2022-12-08T03:15:30;45.33;;;12.55;;
27201;SDS011;14717;46.924;15.474;2022-12-08T03:17:58;43.03;;;11.82;;
27201;SDS011;14717;46.924;15.474;2022-12-08T03:20:25;40.05;;;12.95;;
27201;SDS011;14717;46.924;15.474;2022-12-08T03:22:55;35.83;;;11.48;;
27201;SDS011;14717;46.924;15.474;2022-12-08T03:25:23;32.20;;;11.88;;
27201;SDS011;14717;46.924;15.474;2022-12-08T03:27:51;26.45;;;10.48;;
27201;SDS011;14717;46.924;15.474;2022-12-08T03:32:48;26.08;;;9.45;;
27201;SDS011;14717;46.924;15.474;2022-12-08T03:35:20;27.83;;;9.45;;
27201;SDS011;14717;46.924;15.474;2022-12-08T03:37:49;34.15;;;11.30;;
27201;SDS011;14717;46.924;15.474;2022-12-08T03:40:16;31.73;;;11.15;;
27201;SDS011;14717;46.924;15.474;2022-12-08T03:42:43;31.77;;;10.57;;
27201;SDS011;14717;46.924;15.474;2022-12-08T03:45:09;29.23;;;10.63;;
27201;SDS011;14717;46.924;15.474;2022-12-08T03:47:34;28.30;;;9.43;;
27201;SDS011;14717;46.924;15.474;2022-12-08T03:50:00;28.80;;;10.73;;
27201;SDS011;14717;46.924;15.474;2022-12-08T03:52:26;29.42;;;9.65;;
27201;SDS011;14717;46.924;15.474;2022-12-08T03:54:51;33.22;;;11.35;;
27201;SDS011;14717;46.924;15.474;2022-12-08T03:57:16;31.45;;;10.60;;
27201;SDS011;14717;46.924;15.474;2022-12-08T03:59:42;28.25;;;10.60;;
27201;SDS011;14717;46.924;15.474;2022-12-08T04:02:07;29.50;;;10.30;;
27201;SDS011;14717;46.924;15.474;2022-12-08T04:04:32;37.95;;;11.40;;
27201;SDS011;14717;46.924;15.474;2022-12-08T04:06:58;42.88;;;12.95;;
27201;SDS011;14717;46.924;15.474;2022-12-08T04:09:23;45.15;;;12.75;;
27201;SDS011;14717;46.924;15.474;2022-12-08T04:11:49;44.42;;;13.38;;
27201;SDS011;14717;46.924;15.474;2022-12-08T04:14:14;45.45;;;13.77;;
27201;SDS011;14717;46.924;15.474;2022-12-08T04:16:40;38.75;;;12.07;;
27201;SDS011;14717;46.924;15.474;2022-12-08T04:19:05;36.58;;;11.27;;
27201;SDS011;14717;46.924;15.474;2022-12-08T04:21:31;38.67;;;12.23;;
27201;SDS011;14717;46.924;15.474;2022-12-08T04:23:57;34.97;;;11.30;;
27201;SDS011;14717;46.924;15.474;2022-12-08T04:26:22;41.85;;;11.50;;
27201;SDS011;14717;46.924;15.474;2022-12-08T04:28:48;49.75;;;13.05;;
27201;SDS011;14717;46.924;15.474;2022-12-08T04:31:13;41.88;;;12.05;;
27201;SDS011;14717;46.924;15.474;2022-12-08T04:33:38;44.67;;;14.40;;
27201;SDS011;14717;46.924;15.474;2022-12-08T04:36:04;64.90;;;15.13;;
27201;SDS011;14717;46.924;15.474;2022-12-08T04:38:31;69.95;;;13.38;;
27201;SDS011;14717;46.924;15.474;2022-12-08T04:40:57;40.85;;;13.10;;
27201;SDS011;14717;46.924;15.474;2022-12-08T04:43:22;46.63;;;12.73;;
27201;SDS011;14717;46.924;15.474;2022-12-08T04:45:48;48.20;;;12.65;;
27201;SDS011;14717;46.924;15.474;2022-12-08T04:48:13;33.55;;;11.32;;
27201;SDS011;14717;46.924;15.474;2022-12-08T04:50:39;41.65;;;12.00;;
27201;SDS011;14717;46.924;15.474;2022-12-08T04:53:06;47.20;;;12.48;;
27201;SDS011;14717;46.924;15.474;2022-12-08T04:55:32;37.65;;;12.10;;
27201;SDS011;14717;46.924;15.474;2022-12-08T04:57:57;37.00;;;11.30;;
27201;SDS011;14717;46.924;15.474;2022-12-08T05:00:23;44.83;;;12.50;;
27201;SDS011;14717;46.924;15.474;2022-12-08T05:02:48;39.78;;;10.18;;
27201;SDS011;14717;46.924;15.474;2022-12-08T05:05:13;56.72;;;12.15;;
27201;SDS011;14717;46.924;15.474;2022-12-08T05:07:39;62.78;;;11.38;;
27201;SDS011;14717;46.924;15.474;2022-12-08T05:10:04;37.67;;;11.52;;
27201;SDS011;14717;46.924;15.474;2022-12-08T05:12:30;55.35;;;11.73;;
27201;SDS011;14717;46.924;15.474;2022-12-08T05:14:56;46.38;;;10.88;;
27201;SDS011;14717;46.924;15.474;2022-12-08T05:17:21;35.30;;;10.15;;
27201;SDS011;14717;46.924;15.474;2022-12-08T05:19:46;35.72;;;9.70;;
27201;SDS011;14717;46.924;15.474;2022-12-08T05:22:12;41.50;;;9.95;;
27201;SDS011;14717;46.924;15.474;2022-12-08T05:24:37;30.63;;;10.82;;
27201;SDS011;14717;46.924;15.474;2022-12-08T05:27:03;36.45;;;11.82;;
27201;SDS011;14717;46.924;15.474;2022-12-08T05:29:28;51.05;;;10.95;;
27201;SDS011;14717;46.924;15.474;2022-12-08T05:31:54;53.20;;;11.20;;
27201;SDS011;14717;46.924;15.474;2022-12-08T05:34:19;42.33;;;10.60;;
27201;SDS011;14717;46.924;15.474;2022-12-08T05:36:44;34.72;;;10.82;;
27201;SDS011;14717;46.924;15.474;2022-12-08T05:39:11;47.03;;;9.98;;
27201;SDS011;14717;46.924;15.474;2022-12-08T05:41:37;31.23;;;11.13;;
27201;SDS011;14717;46.924;15.474;2022-12-08T05:44:02;32.97;;;11.05;;
27201;SDS011;14717;46.924;15.474;2022-12-08T05:46:28;32.25;;;10.60;;
27201;SDS011;14717;46.924;15.474;2022-12-08T05:48:53;32.80;;;10.80;;
27201;SDS011;14717;46.924;15.474;2022-12-08T05:51:20;36.08;;;9.77;;
27201;SDS011;14717;46.924;15.474;2022-12-08T05:53:47;29.58;;;10.35;;
27201;SDS011;14717;46.924;15.474;2022-12-08T05:56:14;33.05;;;10.48;;
27201;SDS011;14717;46.924;15.474;2022-12-08T05:58:40;29.80;;;9.15;;
27201;SDS011;14717;46.924;15.474;2022-12-08T06:01:05;33.53;;;10.48;;
27201;SDS011;14717;46.924;15.474;2022-12-08T06:03:31;27.70;;;10.65;;
27201;SDS011;14717;46.924;15.474;2022-12-08T06:05:56;31.20;;;10.32;;
27201;SDS011;14717;46.924;15.474;2022-12-08T06:08:21;28.58;;;10.10;;
27201;SDS011;14717;46.924;15.474;2022-12-08T06:10:47;29.52;;;10.05;;
27201;SDS011;14717;46.924;15.474;2022-12-08T06:13:13;26.75;;;9.68;;
27201;SDS011;14717;46.924;15.474;2022-12-08T06:15:38;27.55;;;9.55;;
27201;SDS011;14717;46.924;15.474;2022-12-08T06:18:04;28.55;;;10.32;;
27201;SDS011;14717;46.924;15.474;2022-12-08T06:20:30;28.13;;;9.35;;
27201;SDS011;14717;46.924;15.474;2022-12-08T06:22:56;30.60;;;10.55;;
27201;SDS011;14717;46.924;15.474;2022-12-08T06:25:22;35.28;;;10.90;;
27201;SDS011;14717;46.924;15.474;2022-12-08T06:27:48;34.30;;;10.82;;
27201;SDS011;14717;46.924;15.474;2022-12-08T06:30:13;31.58;;;10.27;;
27201;SDS011;14717;46.924;15.474;2022-12-08T06:32:39;33.35;;;10.35;;
27201;SDS011;14717;46.924;15.474;2022-12-08T06:35:05;29.42;;;10.60;;
27201;SDS011;14717;46.924;15.474;2022-12-08T06:37:31;27.05;;;9.70;;
27201;SDS011;14717;46.924;15.474;2022-12-08T06:39:56;26.35;;;9.65;;
27201;SDS011;14717;46.924;15.474;2022-12-08T06:42:22;29.50;;;9.93;;
27201;SDS011;14717;46.924;15.474;2022-12-08T06:45:06;27.92;;;10.50;;
27201;SDS011;14717;46.924;15.474;2022-12-08T06:47:32;27.83;;;11.32;;
27201;SDS011;14717;46.924;15.474;2022-12-08T06:49:57;27.77;;;9.15;;
27201;SDS011;14717;46.924;15.474;2022-12-08T06:52:23;32.05;;;10.10;;
27201;SDS011;14717;46.924;15.474;2022-12-08T06:54:48;31.77;;;10.30;;
27201;SDS011;14717;46.924;15.474;2022-12-08T06:57:13;30.17;;;10.52;;
27201;SDS011;14717;46.924;15.474;2022-12-08T06:59:39;31.73;;;10.07;;
27201;SDS011;14717;46.924;15.474;2022-12-08T07:02:04;30.60;;;9.68;;
27201;SDS011;14717;46.924;15.474;2022-12-08T07:04:29;29.08;;;9.52;;
27201;SDS011;14717;46.924;15.474;2022-12-08T07:06:55;35.22;;;11.48;;
27201;SDS011;14717;46.924;15.474;2022-12-08T07:09:20;32.50;;;10.25;;
27201;SDS011;14717;46.924;15.474;2022-12-08T07:11:46;28.52;;;9.57;;
27201;SDS011;14717;46.924;15.474;2022-12-08T07:14:11;30.27;;;10.20;;
27201;SDS011;14717;46.924;15.474;2022-12-08T07:16:37;32.55;;;10.60;;
27201;SDS011;14717;46.924;15.474;2022-12-08T07:19:03;28.55;;;9.70;;
27201;SDS011;14717;46.924;15.474;2022-12-08T07:21:29;27.95;;;9.73;;
27201;SDS011;14717;46.924;15.474;2022-12-08T07:23:55;30.27;;;10.00;;
27201;SDS011;14717;46.924;15.474;2022-12-08T07:26:20;29.35;;;10.35;;
27201;SDS011;14717;46.924;15.474;2022-12-08T07:28:45;30.35;;;10.23;;
27201;SDS011;14717;46.924;15.474;2022-12-08T07:31:29;26.48;;;9.77;;
27201;SDS011;14717;46.924;15.474;2022-12-08T07:33:55;30.00;;;9.73;;
27201;SDS011;14717;46.924;15.474;2022-12-08T07:38:47;31.20;;;9.63;;
27201;SDS011;14717;46.924;15.474;2022-12-08T07:41:13;28.48;;;9.75;;
27201;SDS011;14717;46.924;15.474;2022-12-08T07:43:40;30.45;;;10.68;;
27201;SDS011;14717;46.924;15.474;2022-12-08T07:46:06;30.13;;;12.82;;
27201;SDS011;14717;46.924;15.474;2022-12-08T07:48:31;35.92;;;12.98;;
27201;SDS011;14717;46.924;15.474;2022-12-08T07:51:00;58.58;;;22.50;;
27201;SDS011;14717;46.924;15.474;2022-12-08T07:53:27;39.33;;;14.70;;
27201;SDS011;14717;46.924;15.474;2022-12-08T07:55:52;52.38;;;18.13;;
27201;SDS011;14717;46.924;15.474;2022-12-08T07:58:17;54.20;;;19.25;;
27201;SDS011;14717;46.924;15.474;2022-12-08T08:00:43;62.65;;;22.90;;
27201;SDS011;14717;46.924;15.474;2022-12-08T08:03:09;39.40;;;13.45;;
27201;SDS011;14717;46.924;15.474;2022-12-08T08:05:35;27.63;;;10.18;;
27201;SDS011;14717;46.924;15.474;2022-12-08T08:08:01;53.90;;;19.17;;
27201;SDS011;14717;46.924;15.474;2022-12-08T08:10:26;32.80;;;12.60;;
27201;SDS011;14717;46.924;15.474;2022-12-08T08:12:52;27.67;;;9.88;;
27201;SDS011;14717;46.924;15.474;2022-12-08T08:15:17;34.08;;;11.60;;
27201;SDS011;14717;46.924;15.474;2022-12-08T08:17:47;27.30;;;10.57;;
27201;SDS011;14717;46.924;15.474;2022-12-08T08:20:14;29.33;;;10.95;;
27201;SDS011;14717;46.924;15.474;2022-12-08T08:22:39;31.23;;;10.65;;
27201;SDS011;14717;46.924;15.474;2022-12-08T08:25:05;31.45;;;10.60;;
27201;SDS011;14717;46.924;15.474;2022-12-08T08:27:30;28.10;;;10.65;;
27201;SDS011;14717;46.924;15.474;2022-12-08T08:29:55;29.70;;;10.40;;
27201;SDS011;14717;46.924;15.474;2022-12-08T08:32:21;29.67;;;10.85;;
27201;SDS011;14717;46.924;15.474;2022-12-08T08:34:46;29.50;;;10.73;;
27201;SDS011;14717;46.924;15.474;2022-12-08T08:37:12;29.85;;;9.82;;
27201;SDS011;14717;46.924;15.474;2022-12-08T08:39:37;25.77;;;9.80;;
27201;SDS011;14717;46.924;15.474;2022-12-08T08:42:04;30.13;;;10.00;;
27201;SDS011;14717;46.924;15.474;2022-12-08T08:44:30;27.75;;;9.93;;
27201;SDS011;14717;46.924;15.474;2022-12-08T08:46:55;29.77;;;10.38;;
27201;SDS011;14717;46.924;15.474;2022-12-08T08:49:21;28.88;;;10.40;;
27201;SDS011;14717;46.924;15.474;2022-12-08T08:51:46;25.25;;;10.18;;
27201;SDS011;14717;46.924;15.474;2022-12-08T08:54:11;27.92;;;9.02;;
27201;SDS011;14717;46.924;15.474;2022-12-08T08:56:37;26.13;;;10.30;;
27201;SDS011;14717;46.924;15.474;2022-12-08T08:59:02;23.60;;;9.48;;
27201;SDS011;14717;46.924;15.474;2022-12-08T09:01:28;26.42;;;9.68;;
27201;SDS011;14717;46.924;15.474;2022-12-08T09:03:54;25.70;;;9.57;;
27201;SDS011;14717;46.924;15.474;2022-12-08T09:06:20;26.88;;;9.48;;
27201;SDS011;14717;46.924;15.474;2022-12-08T09:08:47;26.20;;;8.70;;
27201;SDS011;14717;46.924;15.474;2022-12-08T09:11:12;26.38;;;9.70;;
27201;SDS011;14717;46.924;15.474;2022-12-08T09:13:38;26.05;;;9.48;;
27201;SDS011;14717;46.924;15.474;2022-12-08T09:16:05;27.15;;;9.77;;
27201;SDS011;14717;46.924;15.474;2022-12-08T09:18:31;26.38;;;9.57;;
27201;SDS011;14717;46.924;15.474;2022-12-08T09:21:04;25.63;;;9.82;;
27201;SDS011;14717;46.924;15.474;2022-12-08T09:23:31;29.55;;;10.45;;
27201;SDS011;14717;46.924;15.474;2022-12-08T09:25:56;27.98;;;9.88;;
27201;SDS011;14717;46.924;15.474;2022-12-08T09:28:22;28.08;;;10.55;;
27201;SDS011;14717;46.924;15.474;2022-12-08T09:30:47;29.65;;;10.55;;
27201;SDS011;14717;46.924;15.474;2022-12-08T09:33:14;26.17;;;10.10;;
27201;SDS011;14717;46.924;15.474;2022-12-08T09:35:40;39.22;;;11.75;;
27201;SDS011;14717;46.924;15.474;2022-12-08T09:38:05;37.20;;;11.32;;
27201;SDS011;14717;46.924;15.474;2022-12-08T09:40:31;33.63;;;11.70;;
27201;SDS011;14717;46.924;15.474;2022-12-08T09:43:14;29.58;;;10.27;;
27201;SDS011;14717;46.924;15.474;2022-12-08T09:46:03;33.65;;;10.20;;
27201;SDS011;14717;46.924;15.474;2022-12-08T09:48:32;31.25;;;11.25;;
27201;SDS011;14717;46.924;15.474;2022-12-08T09:51:01;33.22;;;11.45;;
27201;SDS011;14717;46.924;15.474;2022-12-08T09:53:35;34.55;;;11.63;;
27201;SDS011;14717;46.924;15.474;2022-12-08T09:56:22;31.13;;;11.32;;
27201;SDS011;14717;46.924;15.474;2022-12-08T10:01:49;35.08;;;11.25;;
27201;SDS011;14717;46.924;15.474;2022-12-08T10:04:22;31.33;;;10.30;;
27201;SDS011;14717;46.924;15.474;2022-12-08T10:17:04;30.80;;;10.07;;
27201;SDS011;14717;46.924;15.474;2022-12-08T10:19:39;27.23;;;9.93;;
27201;SDS011;14717;46.924;15.474;2022-12-08T10:22:14;27.08;;;9.57;;
27201;SDS011;14717;46.924;15.474;2022-12-08T10:24:47;27.13;;;9.55;;
27201;SDS011;14717;46.924;15.474;2022-12-08T10:27:19;27.95;;;10.48;;
27201;SDS011;14717;46.924;15.474;2022-12-08T10:29:45;30.20;;;10.55;;
27201;SDS011;14717;46.924;15.474;2022-12-08T10:32:32;32.22;;;13.00;;
27201;SDS011;14717;46.924;15.474;2022-12-08T10:37:36;31.10;;;10.43;;
27201;SDS011;14717;46.924;15.474;2022-12-08T10:42:38;34.33;;;10.57;;
27201;SDS011;14717;46.924;15.474;2022-12-08T10:47:46;25.83;;;9.50;;
27201;SDS011;14717;46.924;15.474;2022-12-08T10:50:22;31.02;;;10.00;;
27201;SDS011;14717;46.924;15.474;2022-12-08T10:53:09;27.75;;;10.35;;
27201;SDS011;14717;46.924;15.474;2022-12-08T10:55:59;28.45;;;9.77;;
27201;SDS011;14717;46.924;15.474;2022-12-08T10:58:35;27.48;;;10.55;;
27201;SDS011;14717;46.924;15.474;2022-12-08T11:03:46;30.88;;;11.05;;
27201;SDS011;14717;46.924;15.474;2022-12-08T11:06:15;30.17;;;11.70;;
27201;SDS011;14717;46.924;15.474;2022-12-08T11:08:56;33.47;;;10.85;;
27201;SDS011;14717;46.924;15.474;2022-12-08T11:16:51;33.65;;;11.10;;
27201;SDS011;14717;46.924;15.474;2022-12-08T11:19:20;26.10;;;9.80;;
27201;SDS011;14717;46.924;15.474;2022-12-08T11:21:49;31.42;;;10.45;;
27201;SDS011;14717;46.924;15.474;2022-12-08T11:24:25;33.53;;;11.30;;
27201;SDS011;14717;46.924;15.474;2022-12-08T11:26:53;35.47;;;12.38;;
27201;SDS011;14717;46.924;15.474;2022-12-08T11:29:35;34.58;;;14.05;;
27201;SDS011;14717;46.924;15.474;2022-12-08T11:34:58;31.60;;;11.23;;
27201;SDS011;14717;46.924;15.474;2022-12-08T11:37:29;30.73;;;10.77;;
27201;SDS011;14717;46.924;15.474;2022-12-08T11:40:02;36.75;;;10.50;;
27201;SDS011;14717;46.924;15.474;2022-12-08T11:42:32;37.13;;;12.32;;
27201;SDS011;14717;46.924;15.474;2022-12-08T11:45:23;29.48;;;11.20;;
27201;SDS011;14717;46.924;15.474;2022-12-08T11:48:15;31.45;;;11.00;;
27201;SDS011;14717;46.924;15.474;2022-12-08T11:53:42;34.90;;;10.25;;
27201;SDS011;14717;46.924;15.474;2022-12-08T11:56:26;34.67;;;11.23;;
27201;SDS011;14717;46.924;15.474;2022-12-08T12:01:41;40.47;;;11.05;;
27201;SDS011;14717;46.924;15.474;2022-12-08T12:09:55;32.08;;;10.98;;
27201;SDS011;14717;46.924;15.474;2022-12-08T12:23:47;29.63;;;9.55;;
27201;SDS011;14717;46.924;15.474;2022-12-08T12:26:20;25.42;;;10.38;;
27201;SDS011;14717;46.924;15.474;2022-12-08T12:29:01;33.70;;;13.35;;
27201;SDS011;14717;46.924;15.474;2022-12-08T12:31:43;31.65;;;11.43;;
27201;SDS011;14717;46.924;15.474;2022-12-08T12:37:12;29.17;;;10.70;;
27201;SDS011;14717;46.924;15.474;2022-12-08T12:47:44;28.83;;;10.95;;
27201;SDS011;14717;46.924;15.474;2022-12-08T12:50:13;38.25;;;10.90;;
27201;SDS011;14717;46.924;15.474;2022-12-08T12:55:49;30.77;;;10.70;;
27201;SDS011;14717;46.924;15.474;2022-12-08T13:06:08;24.15;;;10.20;;
27201;SDS011;14717;46.924;15.474;2022-12-08T13:08:36;23.08;;;9.82;;
27201;SDS011;14717;46.924;15.474;2022-12-08T13:11:23;37.05;;;10.05;;
27201;SDS011;14717;46.924;15.474;2022-12-08T13:14:00;24.67;;;9.70;;
27201;SDS011;14717;46.924;15.474;2022-12-08T13:16:30;20.25;;;8.50;;
27201;SDS011;14717;46.924;15.474;2022-12-08T13:18:58;27.67;;;9.45;;
27201;SDS011;14717;46.924;15.474;2022-12-08T13:21:31;22.00;;;8.65;;
27201;SDS011;14717;46.924;15.474;2022-12-08T13:26:42;20.98;;;8.32;;
27201;SDS011;14717;46.924;15.474;2022-12-08T13:29:13;22.23;;;8.02;;
27201;SDS011;14717;46.924;15.474;2022-12-08T13:34:19;18.95;;;8.13;;
27201;SDS011;14717;46.924;15.474;2022-12-08T13:36:58;17.15;;;7.50;;
27201;SDS011;14717;46.924;15.474;2022-12-08T13:39:34;19.25;;;7.43;;
27201;SDS011;14717;46.924;15.474;2022-12-08T13:47:37;19.73;;;7.40;;
27201;SDS011;14717;46.924;15.474;2022-12-08T13:50:20;19.70;;;7.63;;
27201;SDS011;14717;46.924;15.474;2022-12-08T13:52:54;18.75;;;7.30;;
27201;SDS011;14717;46.924;15.474;2022-12-08T13:55:28;15.73;;;7.47;;
27201;SDS011;14717;46.924;15.474;2022-12-08T13:57:59;16.52;;;7.07;;
27201;SDS011;14717;46.924;15.474;2022-12-08T14:00:24;16.48;;;6.15;;
27201;SDS011;14717;46.924;15.474;2022-12-08T14:02:51;13.50;;;6.47;;
27201;SDS011;14717;46.924;15.474;2022-12-08T14:05:21;14.85;;;6.63;;
27201;SDS011;14717;46.924;15.474;2022-12-08T14:07:48;15.50;;;6.88;;
27201;SDS011;14717;46.924;15.474;2022-12-08T14:10:18;13.90;;;6.00;;
27201;SDS011;14717;46.924;15.474;2022-12-08T14:12:51;15.45;;;6.68;;
27201;SDS011;14717;46.924;15.474;2022-12-08T14:15:21;17.48;;;7.03;;
27201;SDS011;14717;46.924;15.474;2022-12-08T14:17:51;18.38;;;7.35;;
27201;SDS011;14717;46.924;15.474;2022-12-08T14:22:51;15.40;;;6.65;;
27201;SDS011;14717;46.924;15.474;2022-12-08T14:25:18;18.17;;;7.47;;
27201;SDS011;14717;46.924;15.474;2022-12-08T14:27:44;15.45;;;7.90;;
27201;SDS011;14717;46.924;15.474;2022-12-08T14:37:31;16.13;;;7.47;;
27201;SDS011;14717;46.924;15.474;2022-12-08T14:40:00;22.52;;;7.93;;
27201;SDS011;14717;46.924;15.474;2022-12-08T14:42:29;17.25;;;7.63;;
27201;SDS011;14717;46.924;15.474;2022-12-08T14:45:05;18.40;;;7.57;;
27201;SDS011;14717;46.924;15.474;2022-12-08T14:50:00;39.87;;;16.63;;
27201;SDS011;14717;46.924;15.474;2022-12-08T14:52:27;20.35;;;8.15;;
27201;SDS011;14717;46.924;15.474;2022-12-08T14:54:53;20.05;;;8.98;;
27201;SDS011;14717;46.924;15.474;2022-12-08T14:57:20;20.50;;;9.20;;
27201;SDS011;14717;46.924;15.474;2022-12-08T14:59:46;20.73;;;9.32;;
27201;SDS011;14717;46.924;15.474;2022-12-08T15:04:46;23.60;;;9.20;;
27201;SDS011;14717;46.924;15.474;2022-12-08T15:09:46;30.02;;;11.55;;
27201;SDS011;14717;46.924;15.474;2022-12-08T15:14:40;21.45;;;8.90;;
27201;SDS011;14717;46.924;15.474;2022-12-08T15:17:28;22.80;;;9.80;;
27201;SDS011;14717;46.924;15.474;2022-12-08T15:20:00;31.15;;;11.88;;
27201;SDS011;14717;46.924;15.474;2022-12-08T15:24:53;25.67;;;10.48;;
27201;SDS011;14717;46.924;15.474;2022-12-08T15:27:19;24.05;;;9.75;;
27201;SDS011;14717;46.924;15.474;2022-12-08T15:29:47;20.25;;;8.63;;
27201;SDS011;14717;46.924;15.474;2022-12-08T15:32:15;20.75;;;8.07;;
27201;SDS011;14717;46.924;15.474;2022-12-08T15:34:42;21.52;;;9.10;;
27201;SDS011;14717;46.924;15.474;2022-12-08T15:37:12;17.27;;;7.60;;
27201;SDS011;14717;46.924;15.474;2022-12-08T15:39:44;15.57;;;7.43;;
27201;SDS011;14717;46.924;15.474;2022-12-08T15:42:10;17.95;;;7.55;;
27201;SDS011;14717;46.924;15.474;2022-12-08T15:44:37;17.88;;;7.57;;
27201;SDS011;14717;46.924;15.474;2022-12-08T15:47:02;18.67;;;8.15;;
27201;SDS011;14717;46.924;15.474;2022-12-08T15:49:28;18.50;;;8.55;;
27201;SDS011;14717;46.924;15.474;2022-12-08T15:51:53;20.40;;;8.50;;
27201;SDS011;14717;46.924;15.474;2022-12-08T15:54:19;22.08;;;9.25;;
27201;SDS011;14717;46.924;15.474;2022-12-08T15:56:54;17.63;;;8.18;;
27201;SDS011;14717;46.924;15.474;2022-12-08T15:59:22;18.80;;;8.88;;
27201;SDS011;14717;46.924;15.474;2022-12-08T16:01:49;20.40;;;8.77;;
27201;SDS011;14717;46.924;15.474;2022-12-08T16:04:20;17.40;;;8.30;;
27201;SDS011;14717;46.924;15.474;2022-12-08T16:06:50;20.90;;;9.23;;
27201;SDS011;14717;46.924;15.474;2022-12-08T16:12:02;22.35;;;9.63;;
27201;SDS011;14717;46.924;15.474;2022-12-08T16:14:47;24.98;;;10.00;;
27201;SDS011;14717;46.924;15.474;2022-12-08T16:17:15;24.20;;;11.95;;
27201;SDS011;14717;46.924;15.474;2022-12-08T16:19:42;24.95;;;12.27;;
27201;SDS011;14717;46.924;15.474;2022-12-08T16:22:16;24.25;;;11.93;;
27201;SDS011;14717;46.924;15.474;2022-12-08T16:24:51;20.70;;;8.75;;
27201;SDS011;14717;46.924;15.474;2022-12-08T16:27:41;17.48;;;8.50;;
27201;SDS011;14717;46.924;15.474;2022-12-08T16:30:10;19.50;;;9.75;;
27201;SDS011;14717;46.924;15.474;2022-12-08T16:32:41;20.67;;;9.55;;
27201;SDS011;14717;46.924;15.474;2022-12-08T16:35:07;20.50;;;9.35;;
27201;SDS011;14717;46.924;15.474;2022-12-08T16:37:32;19.50;;;9.63;;
27201;SDS011;14717;46.924;15.474;2022-12-08T16:42:31;21.38;;;9.52;;
27201;SDS011;14717;46.924;15.474;2022-12-08T16:47:44;21.08;;;10.15;;
27201;SDS011;14717;46.924;15.474;2022-12-08T16:50:15;23.23;;;10.55;;
27201;SDS011;14717;46.924;15.474;2022-12-08T16:52:43;20.02;;;9.68;;
27201;SDS011;14717;46.924;15.474;2022-12-08T16:55:09;21.90;;;9.88;;
27201;SDS011;14717;46.924;15.474;2022-12-08T16:57:38;20.27;;;10.20;;
27201;SDS011;14717;46.924;15.474;2022-12-08T17:00:06;21.48;;;10.77;;
27201;SDS011;14717;46.924;15.474;2022-12-08T17:02:42;20.15;;;10.32;;